Time;durP1;ratioP1;P1;durP2;ratioP2;P2;SDS_P1;SDS_P2;PMS_P1;PMS_P2;Temp;Humidity;BMP_temperature;BMP_pressure;BME280_temperature;BME280_humidity;BME280_pressure;Samples;Min_cycle;Max_cycle;Signal;HPM_P1;HPM_P2
2020/12/06 00:01:03;;;;;;;46.13;29.05;;;;;;;2.24;97.69;99774.16;4956809;28;20097;-49
2020/12/06 00:03:31;;;;;;;51.25;30.63;;;;;;;2.23;98.20;99787.56;4954695;28;20137;-52
2020/12/06 00:05:57;;;;;;;55.63;32.65;;;;;;;2.25;98.72;99776.72;4955036;28;20079;-49
2020/12/06 00:08:23;;;;;;;56.42;33.83;;;;;;;2.21;99.36;99771.47;4957981;28;20451;-52
2020/12/06 00:10:50;;;;;;;62.72;34.40;;;;;;;2.03;99.56;99769.00;4957754;28;20047;-50
2020/12/06 00:13:16;;;;;;;62.17;35.83;;;;;;;1.92;100.00;99770.19;4954939;28;20105;-50
2020/12/06 00:15:42;;;;;;;64.25;36.22;;;;;;;1.89;100.00;99758.28;4957377;28;20106;-52
2020/12/06 00:18:09;;;;;;;64.22;36.15;;;;;;;1.97;100.00;99759.50;4959671;28;20475;-52
2020/12/06 00:20:35;;;;;;;64.35;36.17;;;;;;;1.76;100.00;99751.84;4961528;28;20094;-48
2020/12/06 00:23:01;;;;;;;67.63;37.28;;;;;;;1.73;100.00;99744.13;4960742;28;20050;-51
2020/12/06 00:25:28;;;;;;;64.82;36.88;;;;;;;1.72;100.00;99739.00;4958117;28;20575;-48
2020/12/06 00:27:55;;;;;;;61.38;34.92;;;;;;;1.81;100.00;99741.09;4966196;28;20047;-48
2020/12/06 00:30:21;;;;;;;67.43;37.65;;;;;;;1.61;100.00;99732.59;4958110;28;20113;-52
2020/12/06 00:32:47;;;;;;;70.18;36.00;;;;;;;1.58;100.00;99740.91;4957932;28;20051;-49
2020/12/06 00:35:13;;;;;;;72.03;39.35;;;;;;;1.52;100.00;99746.50;4960453;28;20059;-49
2020/12/06 00:37:40;;;;;;;70.35;39.00;;;;;;;1.62;100.00;99747.81;4961002;28;20495;-50
2020/12/06 00:40:07;;;;;;;73.15;38.72;;;;;;;1.56;100.00;99747.50;4959714;28;20050;-52
2020/12/06 00:42:34;;;;;;;73.47;39.88;;;;;;;1.64;100.00;99736.13;4957712;28;20479;-53
2020/12/06 00:45:05;;;;;;;78.40;39.40;;;;;;;1.69;100.00;99741.38;4958450;28;20054;-48
2020/12/06 00:47:36;;;;;;;76.57;38.83;;;;;;;1.77;100.00;99730.84;4960927;28;20054;-48
2020/12/06 00:50:05;;;;;;;69.57;38.08;;;;;;;1.81;100.00;99728.47;4959904;28;20113;-52
2020/12/06 00:52:32;;;;;;;73.18;37.47;;;;;;;1.58;100.00;99725.75;4957652;28;20109;-51
2020/12/06 00:54:59;;;;;;;65.70;37.60;;;;;;;1.57;100.00;99728.19;4957439;28;20051;-54
2020/12/06 00:57:26;;;;;;;69.22;37.55;;;;;;;1.65;100.00;99725.22;4957712;28;20821;-50
2020/12/06 00:59:52;;;;;;;78.57;40.95;;;;;;;1.42;100.00;99705.66;4957512;28;20570;-49
2020/12/06 01:02:19;;;;;;;77.47;39.15;;;;;;;1.35;100.00;99707.03;4960518;28;20113;-48
2020/12/06 01:04:45;;;;;;;76.57;39.47;;;;;;;1.37;100.00;99714.69;4960728;28;20345;-47
2020/12/06 01:07:12;;;;;;;86.70;43.03;;;;;;;1.27;100.00;99705.81;4958530;28;20133;-49
2020/12/06 01:09:39;;;;;;;81.68;43.63;;;;;;;1.26;100.00;99712.53;4957279;28;20549;-46
2020/12/06 01:12:05;;;;;;;74.63;38.92;;;;;;;1.34;100.00;99697.75;4958620;28;20051;-49
2020/12/06 01:14:31;;;;;;;75.68;38.45;;;;;;;1.24;100.00;99698.09;4960600;28;20047;-50
2020/12/06 01:16:58;;;;;;;75.88;37.97;;;;;;;1.63;100.00;99699.09;4960316;28;20165;-49
2020/12/06 01:19:25;;;;;;;64.15;35.88;;;;;;;1.61;100.00;99698.13;4957444;28;20519;-49
2020/12/06 01:21:52;;;;;;;67.25;36.28;;;;;;;1.49;100.00;99700.13;4957199;28;20105;-48
2020/12/06 01:24:19;;;;;;;68.57;37.85;;;;;;;1.49;100.00;99695.94;4960263;28;20077;-52
2020/12/06 01:26:49;;;;;;;66.80;36.78;;;;;;;1.44;100.00;99691.47;4959848;28;20433;-50
2020/12/06 01:29:16;;;;;;;63.42;35.10;;;;;;;1.64;100.00;99688.19;4957677;28;20104;-51
2020/12/06 01:31:47;;;;;;;63.35;34.20;;;;;;;1.57;100.00;99693.72;4963226;28;20105;-52
2020/12/06 01:34:15;;;;;;;59.95;33.92;;;;;;;1.58;100.00;99687.91;4957896;28;20078;-47
2020/12/06 01:36:42;;;;;;;61.55;34.55;;;;;;;1.86;100.00;99676.53;4956958;28;20101;-49
2020/12/06 01:39:08;;;;;;;63.75;33.72;;;;;;;1.71;100.00;99670.00;4958392;28;20051;-55
2020/12/06 01:41:35;;;;;;;64.15;34.70;;;;;;;1.61;100.00;99677.09;4960073;28;20101;-49
2020/12/06 01:44:06;;;;;;;68.03;36.78;;;;;;;1.49;100.00;99667.31;4959419;28;20050;-50
2020/12/06 01:46:36;;;;;;;59.38;33.55;;;;;;;1.65;100.00;99669.72;4956808;28;20106;-47
2020/12/06 01:49:04;;;;;;;60.40;33.72;;;;;;;1.73;100.00;99663.38;4957657;28;20047;-51
2020/12/06 01:51:32;;;;;;;75.07;37.13;;;;;;;1.59;100.00;99661.03;4955243;28;20133;-51
2020/12/06 01:53:59;;;;;;;73.22;36.88;;;;;;;1.69;100.00;99668.19;4957100;28;20084;-49
2020/12/06 01:56:25;;;;;;;82.05;39.03;;;;;;;1.56;100.00;99661.75;4960114;28;20101;-47
2020/12/06 01:58:52;;;;;;;71.28;36.58;;;;;;;1.63;100.00;99661.22;4959876;28;20147;-47
2020/12/06 02:01:18;;;;;;;66.70;36.20;;;;;;;1.89;100.00;99652.25;4956574;28;20055;-50
2020/12/06 02:03:45;;;;;;;69.75;37.33;;;;;;;1.65;100.00;99653.72;4956463;28;20099;-50
2020/12/06 02:06:11;;;;;;;75.68;38.20;;;;;;;1.73;100.00;99650.75;4958556;28;20097;-50
2020/12/06 02:08:38;;;;;;;72.10;37.05;;;;;;;1.74;100.00;99639.00;4959535;28;20078;-47
2020/12/06 02:11:04;;;;;;;64.07;34.65;;;;;;;1.89;100.00;99638.78;4958229;28;20050;-48
2020/12/06 02:13:30;;;;;;;66.53;34.55;;;;;;;1.83;100.00;99638.53;4956216;28;20051;-54
2020/12/06 02:15:57;;;;;;;66.25;34.53;;;;;;;1.83;100.00;99628.44;4956674;28;20098;-49
2020/12/06 02:18:23;;;;;;;59.05;33.35;;;;;;;1.98;100.00;99634.13;4959085;28;20156;-49
2020/12/06 02:20:50;;;;;;;58.97;32.60;;;;;;;1.92;100.00;99627.16;4959267;28;20114;-47
2020/12/06 02:23:16;;;;;;;64.20;34.63;;;;;;;2.02;100.00;99621.69;4956332;28;20087;-50
2020/12/06 02:25:42;;;;;;;66.00;34.83;;;;;;;2.01;100.00;99624.16;4955876;28;20055;-50
2020/12/06 02:28:09;;;;;;;64.90;35.00;;;;;;;2.21;100.00;99622.47;4957635;28;20051;-46
2020/12/06 02:30:36;;;;;;;62.15;33.03;;;;;;;2.26;100.00;99618.47;4959294;28;20106;-51
2020/12/06 02:33:04;;;;;;;65.18;34.22;;;;;;;2.37;100.00;99617.28;4958228;28;20054;-48
2020/12/06 02:35:30;;;;;;;63.00;34.95;;;;;;;2.21;100.00;99615.75;4955943;28;20047;-50
2020/12/06 02:37:57;;;;;;;61.38;33.22;;;;;;;2.22;100.00;99609.06;4955536;28;20055;-47
2020/12/06 02:40:23;;;;;;;53.83;31.02;;;;;;;2.36;100.00;99614.66;4955673;28;20677;-49
2020/12/06 02:42:49;;;;;;;61.53;32.03;;;;;;;2.69;100.00;99623.63;4955747;28;20149;-54
2020/12/06 02:45:16;;;;;;;59.42;30.98;;;;;;;2.50;100.00;99618.63;4958309;28;20054;-50
2020/12/06 02:47:42;;;;;;;60.90;32.35;;;;;;;2.42;100.00;99620.84;4958776;28;20199;-49
2020/12/06 02:50:09;;;;;;;49.92;30.05;;;;;;;2.43;100.00;99625.09;4956826;28;20109;-50
2020/12/06 02:52:35;;;;;;;49.78;29.73;;;;;;;2.38;100.00;99630.75;4955490;28;20102;-51
2020/12/06 02:55:01;;;;;;;61.00;31.83;;;;;;;2.49;100.00;99619.41;4956176;28;20063;-50
2020/12/06 02:57:28;;;;;;;52.05;29.63;;;;;;;2.40;100.00;99619.91;4959180;28;20054;-52
2020/12/06 02:59:55;;;;;;;54.15;29.73;;;;;;;2.41;100.00;99613.22;4958759;28;20490;-48
2020/12/06 03:02:21;;;;;;;57.00;30.48;;;;;;;2.59;100.00;99608.00;4947208;28;20129;-47
2020/12/06 03:04:47;;;;;;;53.17;29.17;;;;;;;2.50;100.00;99606.88;4947266;28;20574;-50
2020/12/06 03:07:14;;;;;;;54.20;30.05;;;;;;;2.55;100.00;99602.00;4947394;28;20086;-49
2020/12/06 03:09:40;;;;;;;57.22;29.08;;;;;;;2.54;100.00;99601.13;4947090;28;20050;-51
2020/12/06 03:12:07;;;;;;;57.65;31.10;;;;;;;2.67;100.00;99599.06;4946973;28;20047;-47
2020/12/06 03:14:34;;;;;;;60.47;30.50;;;;;;;2.48;100.00;99593.28;4947331;28;20051;-49
2020/12/06 03:17:00;;;;;;;55.35;29.95;;;;;;;2.63;100.00;99582.91;4946799;28;20129;-51
2020/12/06 03:19:26;;;;;;;67.80;34.20;;;;;;;2.41;100.00;99585.44;4947702;28;20050;-47
2020/12/06 03:21:53;;;;;;;60.25;30.83;;;;;;;2.79;100.00;99580.19;4947053;28;20106;-49
2020/12/06 03:24:19;;;;;;;55.70;29.75;;;;;;;2.77;100.00;99580.94;4947404;28;20059;-47
2020/12/06 03:26:45;;;;;;;54.58;30.02;;;;;;;2.60;100.00;99570.19;4947192;28;20117;-53
2020/12/06 03:29:12;;;;;;;51.88;27.67;;;;;;;2.74;100.00;99578.31;4947147;28;20221;-47
2020/12/06 03:31:38;;;;;;;46.15;27.85;;;;;;;2.99;100.00;99580.94;4946861;28;20055;-49
2020/12/06 03:34:04;;;;;;;52.40;28.05;;;;;;;3.03;100.00;99582.78;4948281;28;20093;-54
2020/12/06 03:36:31;;;;;;;50.25;28.63;;;;;;;3.03;100.00;99581.94;4958257;28;20050;-50
2020/12/06 03:38:57;;;;;;;51.67;28.45;;;;;;;3.14;100.00;99570.53;4958195;28;20051;-51
2020/12/06 03:41:24;;;;;;;47.72;26.65;;;;;;;3.08;100.00;99577.06;4954657;28;20051;-50
2020/12/06 03:43:50;;;;;;;42.60;26.77;;;;;;;2.90;100.00;99570.50;4954870;28;20110;-53
2020/12/06 03:46:17;;;;;;;45.15;26.05;;;;;;;3.27;100.00;99570.19;4954681;28;20055;-50
2020/12/06 03:48:43;;;;;;;48.38;26.58;;;;;;;3.10;100.00;99577.97;4955964;28;20500;-53
2020/12/06 03:51:09;;;;;;;43.58;25.10;;;;;;;3.19;100.00;99574.13;4959953;28;20051;-53
2020/12/06 03:53:36;;;;;;;39.85;25.20;;;;;;;3.24;100.00;99582.75;4961295;28;20765;-52
2020/12/06 03:56:02;;;;;;;46.80;25.90;;;;;;;3.35;100.00;99578.06;4962315;28;20043;-47
2020/12/06 03:58:28;;;;;;;46.60;26.02;;;;;;;3.58;100.00;99577.22;4962338;28;20126;-48
2020/12/06 04:00:55;;;;;;;47.92;25.73;;;;;;;3.56;100.00;99581.38;4962300;28;20482;-51
2020/12/06 04:03:21;;;;;;;46.88;25.23;;;;;;;3.46;100.00;99584.38;4950549;28;20126;-50
2020/12/06 04:05:47;;;;;;;49.60;26.40;;;;;;;3.47;100.00;99578.53;4950588;28;20051;-49
2020/12/06 04:08:14;;;;;;;44.03;24.88;;;;;;;3.48;100.00;99587.84;4950447;28;20129;-50
2020/12/06 04:10:40;;;;;;;42.72;24.30;;;;;;;3.24;100.00;99586.94;4950789;28;20132;-47
2020/12/06 04:13:06;;;;;;;46.47;25.92;;;;;;;3.20;100.00;99575.00;4950326;28;20054;-52
2020/12/06 04:15:33;;;;;;;42.45;23.48;;;;;;;3.19;100.00;99583.34;4950450;28;20181;-51
2020/12/06 04:18:01;;;;;;;42.15;25.10;;;;;;;3.25;100.00;99569.28;4950131;28;20050;-51
2020/12/06 04:20:28;;;;;;;41.22;23.33;;;;;;;3.14;100.00;99567.16;4950953;28;20050;-53
2020/12/06 04:22:54;;;;;;;46.05;25.08;;;;;;;3.21;100.00;99572.50;4950504;28;20866;-54
2020/12/06 04:25:21;;;;;;;43.42;24.05;;;;;;;3.37;100.00;99568.00;4953637;28;20051;-52
2020/12/06 04:27:47;;;;;;;43.75;25.02;;;;;;;3.36;100.00;99571.34;4960993;28;20365;-52
2020/12/06 04:30:13;;;;;;;40.33;23.27;;;;;;;3.32;100.00;99576.28;4959134;28;20659;-52
2020/12/06 04:32:40;;;;;;;42.70;23.88;;;;;;;3.28;100.00;99574.47;4958249;28;20043;-52
2020/12/06 04:35:06;;;;;;;43.28;24.40;;;;;;;3.40;100.00;99581.63;4959514;28;20127;-50
2020/12/06 04:37:33;;;;;;;48.42;25.90;;;;;;;3.19;100.00;99580.84;4961784;28;20482;-52
2020/12/06 04:40:00;;;;;;;45.25;26.65;;;;;;;3.11;100.00;99579.72;4961574;28;20098;-50
2020/12/06 04:42:27;;;;;;;41.85;25.48;;;;;;;3.22;100.00;99575.91;4961698;28;20050;-50
2020/12/06 04:44:54;;;;;;;44.13;25.30;;;;;;;3.15;100.00;99568.91;4961305;28;20051;-49
2020/12/06 04:47:57;;;;;;;43.30;25.50;;;;;;;3.00;100.00;99561.59;4958169;28;20059;-50
2020/12/06 04:50:33;;;;;;;46.13;25.20;;;;;;;3.15;100.00;99562.19;4977270;28;20913;-49
2020/12/06 04:53:02;;;;;;;42.72;24.55;;;;;;;3.23;100.00;99568.34;4976084;28;20042;-53
2020/12/06 04:55:31;;;;;;;45.88;25.13;;;;;;;3.25;100.00;99558.31;4980825;28;20431;-49
2020/12/06 04:57:59;;;;;;;45.63;24.85;;;;;;;3.25;100.00;99554.13;4980328;28;20081;-49
2020/12/06 05:00:34;;;;;;;43.00;25.67;;;;;;;3.23;100.00;99552.31;4976651;28;20051;-47
2020/12/06 05:03:10;;;;;;;44.17;24.80;;;;;;;3.39;100.00;99547.03;4974572;28;20495;-47
2020/12/06 05:05:41;;;;;;;41.83;25.25;;;;;;;3.28;100.00;99543.22;4980207;28;20662;-47
2020/12/06 05:08:11;;;;;;;47.95;26.20;;;;;;;3.45;100.00;99542.16;4978722;28;20135;-47
2020/12/06 05:10:46;;;;;;;47.45;25.77;;;;;;;3.65;100.00;99550.47;4976674;28;20098;-47
2020/12/06 05:13:14;;;;;;;44.65;25.80;;;;;;;3.58;100.00;99561.19;4979206;28;20059;-47
2020/12/06 05:15:43;;;;;;;46.80;25.90;;;;;;;3.65;100.00;99562.25;4973909;28;20072;-49
2020/12/06 05:18:10;;;;;;;45.63;26.42;;;;;;;3.82;100.00;99561.16;4978749;28;20097;-48
2020/12/06 05:20:37;;;;;;;47.03;26.60;;;;;;;3.76;100.00;99559.28;4980342;28;20054;-50
2020/12/06 05:23:03;;;;;;;43.38;25.38;;;;;;;3.72;100.00;99554.94;4979024;28;20046;-47
2020/12/06 05:25:30;;;;;;;47.08;25.55;;;;;;;3.73;100.00;99563.38;4977075;28;20055;-50
2020/12/06 05:27:56;;;;;;;43.38;25.52;;;;;;;3.84;100.00;99572.22;4957344;28;20570;-53
2020/12/06 05:30:23;;;;;;;44.78;26.50;;;;;;;3.90;100.00;99561.44;4957164;28;20154;-50
2020/12/06 05:32:49;;;;;;;44.58;23.85;;;;;;;3.82;100.00;99561.16;4956831;28;20047;-50
2020/12/06 05:35:19;;;;;;;42.60;24.45;;;;;;;3.80;100.00;99560.25;4960357;28;20059;-51
2020/12/06 05:37:46;;;;;;;42.05;24.20;;;;;;;3.68;100.00;99553.09;4949644;28;20054;-47
2020/12/06 05:40:16;;;;;;;51.42;25.83;;;;;;;3.96;100.00;99562.50;4958238;28;20054;-49
2020/12/06 05:42:45;;;;;;;43.70;24.90;;;;;;;3.98;100.00;99563.44;4956783;28;20058;-55
2020/12/06 05:45:13;;;;;;;42.25;23.90;;;;;;;3.93;100.00;99559.88;4959197;28;20047;-48
2020/12/06 05:47:39;;;;;;;43.22;23.77;;;;;;;3.98;100.00;99565.97;4962215;28;20106;-51
2020/12/06 05:50:07;;;;;;;41.42;22.63;;;;;;;4.07;100.00;99565.41;4958152;28;20047;-49
2020/12/06 05:52:34;;;;;;;43.15;23.58;;;;;;;3.94;100.00;99564.13;4959759;28;20046;-51
2020/12/06 05:55:01;;;;;;;40.10;22.35;;;;;;;3.89;100.00;99563.13;4959812;28;20046;-47
2020/12/06 05:57:43;;;;;;;44.25;23.48;;;;;;;3.92;100.00;99572.47;4973553;28;20458;-46
2020/12/06 06:00:10;;;;;;;43.53;23.67;;;;;;;3.98;100.00;99565.09;4977662;28;20473;-53
2020/12/06 06:02:39;;;;;;;40.25;23.98;;;;;;;3.95;100.00;99567.53;4979124;28;20050;-49
2020/12/06 06:05:07;;;;;;;45.78;24.35;;;;;;;3.74;100.00;99568.47;4979211;28;20748;-49
2020/12/06 06:07:35;;;;;;;39.38;22.30;;;;;;;3.81;100.00;99564.50;4979241;28;20163;-50
2020/12/06 06:10:06;;;;;;;37.30;22.52;;;;;;;3.79;100.00;99568.66;4978731;28;20078;-54
2020/12/06 06:12:32;;;;;;;39.35;23.02;;;;;;;3.88;100.00;99575.69;4974980;28;20105;-50
2020/12/06 06:15:01;;;;;;;39.78;22.58;;;;;;;4.03;100.00;99577.09;4976271;28;20122;-50
2020/12/06 06:17:29;;;;;;;36.53;22.00;;;;;;;4.01;100.00;99581.22;4978832;28;20057;-50
2020/12/06 06:19:56;;;;;;;41.30;22.40;;;;;;;3.75;100.00;99582.91;4975358;28;20635;-50
2020/12/06 06:22:30;;;;;;;41.15;23.40;;;;;;;3.80;100.00;99578.00;4975122;28;20114;-52
2020/12/06 06:25:00;;;;;;;39.08;23.33;;;;;;;3.83;100.00;99575.53;4975317;28;20490;-52
2020/12/06 06:27:33;;;;;;;41.63;24.33;;;;;;;3.88;100.00;99575.69;4978652;28;20069;-48
2020/12/06 06:30:00;;;;;;;42.15;23.80;;;;;;;3.85;100.00;99573.94;4978267;28;20050;-48
2020/12/06 06:32:28;;;;;;;46.67;24.73;;;;;;;3.75;100.00;99577.84;4975278;28;20337;-52
2020/12/06 06:34:55;;;;;;;39.28;22.40;;;;;;;3.90;100.00;99569.03;4975127;28;20055;-53
2020/12/06 06:37:28;;;;;;;43.92;24.05;;;;;;;3.85;100.00;99570.56;4974947;28;20498;-51
2020/12/06 06:39:59;;;;;;;44.03;25.48;;;;;;;3.86;100.00;99560.47;4976062;28;20070;-47
2020/12/06 06:42:27;;;;;;;46.88;24.85;;;;;;;3.80;100.00;99553.53;4973847;28;20117;-47
2020/12/06 06:45:03;;;;;;;41.78;23.75;;;;;;;3.84;100.00;99559.56;4977071;28;20590;-49
2020/12/06 06:47:30;;;;;;;44.83;22.88;;;;;;;3.97;100.00;99560.81;4974692;28;20174;-50
2020/12/06 06:49:59;;;;;;;44.63;23.75;;;;;;;4.30;100.00;99566.16;4966630;28;20051;-49
2020/12/06 06:52:28;;;;;;;39.53;23.30;;;;;;;4.47;100.00;99567.53;4966500;28;20105;-42
2020/12/06 06:54:58;;;;;;;41.58;22.65;;;;;;;4.15;100.00;99570.72;4966677;28;20522;-43
2020/12/06 06:57:29;;;;;;;37.42;22.80;;;;;;;4.14;100.00;99567.31;4966328;28;20051;-48
2020/12/06 06:59:57;;;;;;;35.25;21.35;;;;;;;4.31;100.00;99562.81;4966727;28;20117;-45
2020/12/06 07:02:49;;;;;;;38.05;21.65;;;;;;;4.24;100.00;99559.19;4970079;28;20130;-47
2020/12/06 07:05:21;;;;;;;36.40;21.92;;;;;;;4.28;100.00;99563.56;4974417;28;20065;-47
2020/12/06 07:07:49;;;;;;;36.65;21.88;;;;;;;4.33;100.00;99558.63;4976519;28;20073;-46
2020/12/06 07:10:18;;;;;;;36.95;22.13;;;;;;;4.34;100.00;99557.81;4975769;28;20054;-48
2020/12/06 07:12:52;;;;;;;34.85;21.48;;;;;;;4.43;100.00;99560.66;4975048;28;20586;-46
2020/12/06 07:15:21;;;;;;;37.05;21.45;;;;;;;4.36;100.00;99560.44;4973816;28;20125;-47
2020/12/06 07:17:48;;;;;;;36.03;21.92;;;;;;;4.37;100.00;99560.47;4975318;28;20125;-48
2020/12/06 07:20:17;;;;;;;35.47;21.17;;;;;;;4.57;100.00;99550.94;4970783;28;20047;-45
2020/12/06 07:22:46;;;;;;;34.10;21.15;;;;;;;4.41;100.00;99552.16;4975247;28;20046;-48
2020/12/06 07:25:13;;;;;;;33.67;20.85;;;;;;;4.51;100.00;99555.84;4977617;28;20463;-46
2020/12/06 07:27:40;;;;;;;33.80;21.25;;;;;;;4.50;100.00;99554.97;4977327;28;20046;-43
2020/12/06 07:30:08;;;;;;;36.65;21.75;;;;;;;4.69;100.00;99569.09;4976826;28;20097;-44
2020/12/06 07:32:35;;;;;;;32.08;20.63;;;;;;;4.65;100.00;99564.72;4978233;28;20041;-44
2020/12/06 07:35:03;;;;;;;34.28;19.77;;;;;;;4.85;100.00;99562.78;4976350;28;20845;-45
2020/12/06 07:37:30;;;;;;;29.98;18.88;;;;;;;4.79;100.00;99558.41;4953930;28;20098;-44
2020/12/06 07:39:56;;;;;;;30.08;18.48;;;;;;;5.07;100.00;99560.09;4942772;28;20057;-46
2020/12/06 07:42:27;;;;;;;30.05;18.90;;;;;;;4.77;100.00;99561.72;4944044;28;20086;-41
2020/12/06 07:44:57;;;;;;;30.40;18.58;;;;;;;4.96;100.00;99566.53;4947471;28;20511;-45
2020/12/06 07:47:25;;;;;;;29.17;18.50;;;;;;;4.88;100.00;99562.91;4948736;28;20138;-43
2020/12/06 07:49:53;;;;;;;31.88;18.73;;;;;;;5.01;100.00;99559.06;4953127;28;20078;-42
2020/12/06 07:52:21;;;;;;;30.50;19.20;;;;;;;5.14;100.00;99562.81;4951727;28;20055;-46
2020/12/06 07:54:56;;;;;;;30.48;19.73;;;;;;;5.02;99.81;99559.09;4951793;28;20094;-44
2020/12/06 07:57:37;;;;;;;33.50;19.67;;;;;;;5.13;99.81;99563.63;4950144;28;20051;-43
2020/12/06 08:00:13;;;;;;;35.47;20.80;;;;;;;5.09;99.75;99568.63;4954393;28;20059;-45
2020/12/06 08:02:46;;;;;;;30.25;20.35;;;;;;;5.29;99.05;99569.19;4956398;28;20058;-48
2020/12/06 08:05:26;;;;;;;34.47;20.67;;;;;;;5.45;98.90;99574.69;4958340;28;20413;-43
2020/12/06 08:07:58;;;;;;;35.17;21.35;;;;;;;5.65;97.75;99580.34;4952946;28;20118;-51
2020/12/06 08:10:28;;;;;;;;;;;;;;;5.57;96.95;99572.50;4962459;28;20065;-48
2020/12/06 08:12:55;;;;;;;29.40;17.83;;;;;;;5.65;97.50;99580.34;4956844;28;20374;-44
2020/12/06 08:15:25;;;;;;;34.15;18.80;;;;;;;5.73;97.32;99578.84;4944807;28;20047;-50
2020/12/06 08:17:53;;;;;;;30.75;17.80;;;;;;;5.88;95.99;99564.88;4942377;28;20265;-47
2020/12/06 08:20:24;;;;;;;25.58;16.92;;;;;;;5.96;96.28;99567.69;4943615;28;20484;-44
2020/12/06 08:23:00;;;;;;;27.65;16.52;;;;;;;6.10;95.43;99561.25;4948213;28;20744;-51
2020/12/06 08:25:30;;;;;;;28.52;17.90;;;;;;;5.93;95.67;99570.13;4961377;28;20102;-44
2020/12/06 08:27:58;;;;;;;26.55;16.45;;;;;;;6.08;94.97;99565.44;4946697;28;20518;-46
2020/12/06 08:30:30;;;;;;;27.52;16.52;;;;;;;6.09;95.86;99564.59;4950187;28;20047;-46
2020/12/06 08:33:02;;;;;;;24.63;16.15;;;;;;;6.30;94.63;99555.81;4942498;28;20122;-54
2020/12/06 08:35:48;;;;;;;25.25;16.45;;;;;;;6.18;95.07;99563.13;4947202;28;20055;-47
2020/12/06 08:38:23;;;;;;;25.02;17.42;;;;;;;6.27;95.02;99561.66;4949594;28;20059;-43
2020/12/06 08:41:11;;;;;;;27.50;17.40;;;;;;;6.52;94.07;99563.13;4953877;28;20043;-44
2020/12/06 08:44:03;;;;;;;24.10;16.10;;;;;;;6.60;93.31;99561.59;4957219;28;20078;-45
2020/12/06 08:46:31;;;;;;;24.55;16.63;;;;;;;6.51;93.93;99569.00;4956275;28;20110;-49
2020/12/06 08:49:00;;;;;;;23.52;15.60;;;;;;;6.98;91.91;99559.09;4958787;28;20071;-45
2020/12/06 08:51:33;;;;;;;22.33;15.73;;;;;;;6.82;92.23;99554.47;4961526;28;20055;-46
2020/12/06 08:54:02;;;;;;;21.45;14.35;;;;;;;7.08;91.21;99555.06;4958918;28;20047;-48
2020/12/06 08:56:42;;;;;;;25.17;15.35;;;;;;;6.92;92.38;99546.22;4961447;28;20509;-45
2020/12/06 08:59:16;;;;;;;23.65;14.80;;;;;;;7.46;90.16;99544.78;4977870;28;20047;-42
2020/12/06 09:01:48;;;;;;;19.90;14.25;;;;;;;7.43;90.20;99550.66;4979578;28;20065;-47
2020/12/06 09:04:15;;;;;;;22.83;15.20;;;;;;;7.52;89.75;99539.78;4979829;28;20419;-49
2020/12/06 09:06:42;;;;;;;18.70;14.45;;;;;;;7.47;89.45;99546.50;4979112;28;20837;-43
2020/12/06 09:09:09;;;;;;;30.27;17.75;;;;;;;7.66;88.38;99535.81;4977361;28;20082;-45
2020/12/06 09:11:39;;;;;;;40.83;21.83;;;;;;;7.52;88.96;99530.47;4975712;28;20104;-42
2020/12/06 09:14:05;;;;;;;41.22;22.23;;;;;;;7.46;88.98;99530.34;4986022;28;20055;-47
2020/12/06 09:16:32;;;;;;;37.58;20.55;;;;;;;7.64;88.58;99532.41;4976311;28;20055;-42
2020/12/06 09:18:58;;;;;;;36.65;20.60;;;;;;;7.64;88.38;99523.06;4978778;28;20050;-44
2020/12/06 09:21:25;;;;;;;39.05;22.45;;;;;;;7.37;89.28;99510.66;4975064;28;20692;-45
2020/12/06 09:23:51;;;;;;;33.78;20.42;;;;;;;7.60;88.83;99513.66;4977600;28;20058;-47
2020/12/06 09:26:18;;;;;;;30.00;19.35;;;;;;;7.50;89.61;99504.13;4975156;28;20467;-44
2020/12/06 09:28:44;;;;;;;29.08;17.85;;;;;;;7.63;89.22;99500.97;4976410;28;20105;-45
2020/12/06 09:31:10;;;;;;;28.45;17.02;;;;;;;7.73;89.17;99503.69;4976352;28;20049;-47
2020/12/06 09:33:37;;;;;;;25.20;16.63;;;;;;;7.88;87.90;99503.94;4975736;28;20470;-47
2020/12/06 09:36:04;;;;;;;23.55;15.85;;;;;;;7.99;87.36;99501.56;4977860;28;20046;-47
2020/12/06 09:38:30;;;;;;;18.90;13.90;;;;;;;7.96;87.13;99497.28;4953901;28;20051;-46
2020/12/06 09:40:57;;;;;;;17.55;13.38;;;;;;;8.01;87.39;99493.13;4957090;28;20055;-46
2020/12/06 09:43:24;;;;;;;18.90;13.30;;;;;;;8.13;87.54;99484.81;4960847;28;20050;-49
2020/12/06 09:45:50;;;;;;;20.90;13.38;;;;;;;8.00;87.83;99485.47;4957993;28;20800;-45
2020/12/06 09:48:17;;;;;;;20.13;12.52;;;;;;;8.32;86.37;99480.84;4959821;28;20110;-49
2020/12/06 09:50:43;;;;;;;16.88;11.35;;;;;;;8.42;85.72;99485.31;4958901;28;20400;-53
2020/12/06 09:53:10;;;;;;;18.73;12.27;;;;;;;8.33;85.74;99473.25;4959231;28;20106;-51
2020/12/06 09:55:36;;;;;;;18.77;13.00;;;;;;;8.49;85.59;99470.94;4959213;28;20105;-46
2020/12/06 09:58:03;;;;;;;16.95;11.48;;;;;;;8.71;84.41;99478.06;4958297;28;20645;-44
2020/12/06 10:00:29;;;;;;;16.13;11.57;;;;;;;9.20;82.49;99483.78;4960902;28;20555;-51
2020/12/06 10:02:57;;;;;;;14.90;10.60;;;;;;;9.37;82.00;99489.94;4947451;28;20451;-50
2020/12/06 10:05:24;;;;;;;20.05;12.70;;;;;;;9.10;82.47;99497.28;4976727;28;20061;-46
2020/12/06 10:07:50;;;;;;;19.42;12.68;;;;;;;9.58;80.62;99504.66;4977509;28;20047;-49
2020/12/06 10:10:17;;;;;;;13.35;10.25;;;;;;;9.58;79.86;99496.97;4972211;28;20697;-42
2020/12/06 10:12:44;;;;;;;16.27;10.85;;;;;;;9.67;80.08;99491.97;4976487;28;20097;-48
2020/12/06 10:15:10;;;;;;;15.30;10.55;;;;;;;9.49;80.59;99506.25;4978034;28;20046;-49
2020/12/06 10:17:38;;;;;;;15.60;11.23;;;;;;;9.78;78.94;99502.28;4978206;28;20070;-46
2020/12/06 10:20:06;;;;;;;16.92;10.70;;;;;;;9.32;81.92;99508.59;4977112;28;20051;-43
2020/12/06 10:22:33;;;;;;;13.55;10.30;;;;;;;10.15;78.09;99511.13;4978942;28;20100;-45
2020/12/06 10:25:06;;;;;;;16.75;11.32;;;;;;;10.41;76.09;99510.53;4983588;28;20205;-48
2020/12/06 10:27:34;;;;;;;16.70;10.55;;;;;;;10.18;76.38;99506.06;4979343;28;20469;-51
2020/12/06 10:30:04;;;;;;;17.80;10.73;;;;;;;10.46;75.52;99508.84;4973478;28;20046;-48
2020/12/06 10:32:32;;;;;;;15.75;10.18;;;;;;;9.87;78.31;99515.16;4975346;28;20050;-48
2020/12/06 10:34:58;;;;;;;15.68;10.55;;;;;;;9.95;77.45;99508.41;4975734;28;20124;-45
2020/12/06 10:37:24;;;;;;;14.93;10.45;;;;;;;10.00;77.95;99513.56;4978904;28;20113;-49
2020/12/06 10:39:51;;;;;;;14.80;10.63;;;;;;;9.84;78.47;99498.91;4975813;28;20050;-47
2020/12/06 10:42:18;;;;;;;16.48;10.57;;;;;;;9.94;78.51;99496.47;4977044;28;20050;-48
2020/12/06 10:44:44;;;;;;;14.27;9.90;;;;;;;9.92;78.55;99499.84;4973184;28;20508;-45
2020/12/06 10:47:11;;;;;;;14.77;10.57;;;;;;;9.84;78.39;99493.81;4975666;28;20043;-44
2020/12/06 10:49:42;;;;;;;15.13;10.85;;;;;;;10.12;77.77;99487.22;4974427;28;20073;-48
2020/12/06 10:52:10;;;;;;;14.40;10.60;;;;;;;10.12;77.92;99483.00;4978552;28;20046;-44
2020/12/06 10:54:37;;;;;;;14.02;9.63;;;;;;;10.07;77.40;99487.19;4975475;28;20735;-45
2020/12/06 10:57:05;;;;;;;14.57;10.23;;;;;;;10.43;76.49;99478.97;4976730;28;20109;-43
2020/12/06 10:59:36;;;;;;;14.15;10.07;;;;;;;10.47;76.31;99479.00;4958476;28;20349;-50
2020/12/06 11:02:03;;;;;;;13.75;9.40;;;;;;;10.74;75.07;99478.31;4966027;28;20440;-49
2020/12/06 11:04:31;;;;;;;14.18;9.80;;;;;;;10.92;74.18;99473.28;4968280;28;20101;-44
2020/12/06 11:06:58;;;;;;;17.40;9.98;;;;;;;10.69;75.16;99483.41;4955903;28;20471;-49
2020/12/06 11:09:26;;;;;;;15.02;10.20;;;;;;;11.11;73.26;99481.91;4964668;28;20054;-48
2020/12/06 11:11:53;;;;;;;13.25;9.88;;;;;;;10.91;73.99;99472.44;4955767;28;20415;-45
2020/12/06 11:14:21;;;;;;;15.63;10.82;;;;;;;10.89;74.17;99468.16;4959415;28;20057;-45
2020/12/06 11:16:51;;;;;;;13.73;9.30;;;;;;;11.09;73.55;99474.22;4958863;28;20093;-46
2020/12/06 11:19:18;;;;;;;13.43;9.93;;;;;;;11.01;73.33;99478.44;4959653;28;20100;-51
2020/12/06 11:21:45;;;;;;;13.25;9.73;;;;;;;10.92;73.77;99471.59;4957678;28;20073;-46
2020/12/06 11:24:11;;;;;;;13.80;9.70;;;;;;;11.32;72.71;99463.16;4956861;28;20180;-52